LVCTT SAZM-SABE
Flight info
| Callsign | LVCTT |
|---|---|
| Flight time | 0h 55m |
| Altitude | 25000 |
| Route | PULPA1G PULPA UW31 TENIL TENIL8Q |
| Aircraft | B350/L-SBGRW/S |
Departure
| Time | 2026-04-24 01:13 |
|---|---|
| Airport | Ástor Piazzola International Airport (SAZM) |
Arrival
| Time | 2026-04-24 02:08 |
|---|---|
| Airport | Aeroparque Jorge Newbery (SABE) |
| Time | Latitude | Longitude | Altitude | Speed | Heading |
|---|---|---|---|---|---|
| 2026-04-24 00:52 | -37.93418 | -57.57971 | 50 ft | 0 kts | 301° |
| 2026-04-24 01:07 | -37.93418 | -57.57972 | 50 ft | 1 kts | 303° |
| 2026-04-24 01:08 | -37.93404 | -57.57940 | 48 ft | 10 kts | 105° |
| 2026-04-24 01:08 | -37.93442 | -57.57839 | 47 ft | 14 kts | 120° |
| 2026-04-24 01:08 | -37.93495 | -57.57719 | 50 ft | 17 kts | 117° |
| 2026-04-24 01:08 | -37.93555 | -57.57585 | 50 ft | 18 kts | 118° |
| 2026-04-24 01:09 | -37.93619 | -57.57439 | 50 ft | 19 kts | 119° |
| 2026-04-24 01:09 | -37.93686 | -57.57285 | 47 ft | 20 kts | 119° |
| 2026-04-24 01:09 | -37.93757 | -57.57126 | 50 ft | 21 kts | 119° |
| 2026-04-24 01:09 | -37.93830 | -57.56962 | 47 ft | 22 kts | 119° |
| 2026-04-24 01:10 | -37.93889 | -57.56828 | 47 ft | 16 kts | 120° |
| 2026-04-24 01:10 | -37.93943 | -57.56703 | 50 ft | 17 kts | 118° |
| 2026-04-24 01:10 | -37.94000 | -57.56578 | 50 ft | 16 kts | 119° |
| 2026-04-24 01:10 | -37.94028 | -57.56450 | 50 ft | 15 kts | 69° |
| 2026-04-24 01:11 | -37.93970 | -57.56319 | 49 ft | 19 kts | 39° |
| 2026-04-24 01:11 | -37.93917 | -57.56347 | 49 ft | 0 kts | 302° |
| 2026-04-24 01:12 | -37.93820 | -57.56539 | 50 ft | 66 kts | 303° |
| 2026-04-24 01:12 | -37.93471 | -57.57245 | 53 ft | 117 kts | 302° |
| 2026-04-24 01:12 | -37.92992 | -57.58206 | 270 ft | 138 kts | 303° |
| 2026-04-24 01:12 | -37.92431 | -57.59269 | 492 ft | 157 kts | 304° |
| 2026-04-24 01:13 | -37.91796 | -57.60488 | 660 ft | 170 kts | 304° |
| 2026-04-24 01:13 | -37.91146 | -57.61748 | 952 ft | 172 kts | 303° |
| 2026-04-24 01:13 | -37.90566 | -57.63089 | 1249 ft | 178 kts | 297° |
| 2026-04-24 01:13 | -37.89953 | -57.64542 | 1549 ft | 195 kts | 301° |
| 2026-04-24 01:14 | -37.89099 | -57.65924 | 1858 ft | 205 kts | 316° |
| 2026-04-24 01:14 | -37.88029 | -57.67156 | 2162 ft | 210 kts | 317° |
| 2026-04-24 01:14 | -37.86761 | -57.68045 | 2477 ft | 216 kts | 342° |
| 2026-04-24 01:14 | -37.85239 | -57.68127 | 2794 ft | 224 kts | 1° |
| 2026-04-24 01:15 | -37.83683 | -57.67994 | 3100 ft | 224 kts | 353° |
| 2026-04-24 01:15 | -37.82125 | -57.68076 | 3408 ft | 224 kts | 349° |
| 2026-04-24 01:15 | -37.80552 | -57.68156 | 3714 ft | 228 kts | 354° |
| 2026-04-24 01:15 | -37.78960 | -57.68132 | 4013 ft | 230 kts | 355° |
| 2026-04-24 01:16 | -37.77353 | -57.68079 | 4318 ft | 234 kts | 1° |
| 2026-04-24 01:16 | -37.75750 | -57.67598 | 4623 ft | 237 kts | 6° |
| 2026-04-24 01:16 | -37.74130 | -57.67112 | 4928 ft | 241 kts | 9° |
| 2026-04-24 01:16 | -37.72496 | -57.66836 | 5229 ft | 235 kts | 351° |
| 2026-04-24 01:17 | -37.70882 | -57.67094 | 5532 ft | 235 kts | 348° |
| 2026-04-24 01:17 | -37.69236 | -57.67229 | 5835 ft | 240 kts | 353° |
| 2026-04-24 01:17 | -37.67559 | -57.67224 | 6137 ft | 242 kts | 355° |
| 2026-04-24 01:17 | -37.65873 | -57.67225 | 6438 ft | 242 kts | 354° |
| 2026-04-24 01:18 | -37.64184 | -57.67252 | 6733 ft | 244 kts | 353° |
| 2026-04-24 01:18 | -37.62484 | -57.67280 | 7039 ft | 245 kts | 354° |
| 2026-04-24 01:18 | -37.60780 | -57.67301 | 7339 ft | 245 kts | 354° |
| 2026-04-24 01:18 | -37.59067 | -57.67317 | 7644 ft | 247 kts | 354° |
| 2026-04-24 01:19 | -37.57348 | -57.67333 | 7945 ft | 247 kts | 353° |
| 2026-04-24 01:19 | -37.55629 | -57.67369 | 8244 ft | 247 kts | 353° |
| 2026-04-24 01:19 | -37.53925 | -57.67393 | 8540 ft | 248 kts | 354° |
| 2026-04-24 01:19 | -37.52194 | -57.67412 | 8839 ft | 249 kts | 354° |
| 2026-04-24 01:20 | -37.50466 | -57.67430 | 9230 ft | 245 kts | 354° |
| 2026-04-24 01:20 | -37.48780 | -57.67446 | 9751 ft | 239 kts | 353° |
| 2026-04-24 01:20 | -37.47137 | -57.67471 | 10267 ft | 234 kts | 353° |
| 2026-04-24 01:20 | -37.45517 | -57.67495 | 10787 ft | 231 kts | 353° |
| 2026-04-24 01:21 | -37.43915 | -57.67516 | 11303 ft | 229 kts | 352° |
| 2026-04-24 01:21 | -37.42327 | -57.67536 | 11819 ft | 227 kts | 352° |
| 2026-04-24 01:21 | -37.40763 | -57.67642 | 12335 ft | 224 kts | 346° |
| 2026-04-24 01:21 | -37.39205 | -57.67832 | 12852 ft | 226 kts | 347° |
| 2026-04-24 01:22 | -37.37630 | -57.67979 | 13372 ft | 228 kts | 348° |
| 2026-04-24 01:22 | -37.36042 | -57.68106 | 13892 ft | 229 kts | 348° |
| 2026-04-24 01:22 | -37.34453 | -57.68240 | 14409 ft | 229 kts | 348° |
| 2026-04-24 01:22 | -37.32861 | -57.68378 | 14933 ft | 229 kts | 348° |
| 2026-04-24 01:23 | -37.31267 | -57.68514 | 15453 ft | 229 kts | 348° |
| 2026-04-24 01:23 | -37.29681 | -57.68651 | 15975 ft | 228 kts | 348° |
| 2026-04-24 01:23 | -37.28098 | -57.68787 | 16496 ft | 228 kts | 348° |
| 2026-04-24 01:23 | -37.26522 | -57.68921 | 17016 ft | 227 kts | 348° |
| 2026-04-24 01:24 | -37.24947 | -57.69055 | 17537 ft | 226 kts | 348° |
| 2026-04-24 01:24 | -37.23385 | -57.69192 | 18056 ft | 224 kts | 348° |
| 2026-04-24 01:24 | -37.21834 | -57.69324 | 18576 ft | 223 kts | 348° |
| 2026-04-24 01:24 | -37.20314 | -57.69452 | 19085 ft | 221 kts | 347° |
| 2026-04-24 01:25 | -37.18788 | -57.69584 | 19604 ft | 219 kts | 347° |
| 2026-04-24 01:25 | -37.17266 | -57.69716 | 20103 ft | 220 kts | 346° |
| 2026-04-24 01:25 | -37.15714 | -57.69853 | 20443 ft | 228 kts | 346° |
| 2026-04-24 01:25 | -37.14093 | -57.69995 | 20695 ft | 238 kts | 347° |
| 2026-04-24 01:26 | -37.12414 | -57.70135 | 20951 ft | 245 kts | 347° |
| 2026-04-24 01:26 | -37.10696 | -57.70280 | 21207 ft | 250 kts | 347° |
| 2026-04-24 01:26 | -37.08944 | -57.70428 | 21465 ft | 255 kts | 347° |
| 2026-04-24 01:26 | -37.07163 | -57.70580 | 21722 ft | 258 kts | 347° |
| 2026-04-24 01:27 | -37.05366 | -57.70733 | 21979 ft | 260 kts | 347° |
| 2026-04-24 01:27 | -37.03552 | -57.70887 | 22235 ft | 262 kts | 346° |
| 2026-04-24 01:27 | -37.01731 | -57.71041 | 22491 ft | 263 kts | 346° |
| 2026-04-24 01:27 | -36.99903 | -57.71198 | 22745 ft | 264 kts | 346° |
| 2026-04-24 01:28 | -36.98069 | -57.71355 | 23000 ft | 264 kts | 346° |
| 2026-04-24 01:28 | -36.96230 | -57.71510 | 23254 ft | 265 kts | 346° |
| 2026-04-24 01:28 | -36.94397 | -57.71665 | 23506 ft | 264 kts | 345° |
| 2026-04-24 01:28 | -36.92560 | -57.71822 | 23758 ft | 264 kts | 345° |
| 2026-04-24 01:29 | -36.90728 | -57.71977 | 24005 ft | 264 kts | 345° |
| 2026-04-24 01:29 | -36.88897 | -57.72134 | 24254 ft | 264 kts | 345° |
| 2026-04-24 01:29 | -36.87090 | -57.72288 | 24500 ft | 263 kts | 345° |
| 2026-04-24 01:29 | -36.85266 | -57.72440 | 24750 ft | 262 kts | 345° |
| 2026-04-24 01:30 | -36.83446 | -57.72595 | 24999 ft | 261 kts | 345° |
| 2026-04-24 01:30 | -36.81625 | -57.72752 | 25139 ft | 265 kts | 345° |
| 2026-04-24 01:30 | -36.79762 | -57.72916 | 25145 ft | 272 kts | 345° |
| 2026-04-24 01:30 | -36.77857 | -57.73077 | 25150 ft | 277 kts | 345° |
| 2026-04-24 01:31 | -36.75914 | -57.73238 | 25150 ft | 282 kts | 345° |
| 2026-04-24 01:31 | -36.73946 | -57.73403 | 25156 ft | 285 kts | 345° |
| 2026-04-24 01:31 | -36.71964 | -57.73594 | 25156 ft | 283 kts | 340° |
| 2026-04-24 01:31 | -36.70135 | -57.74307 | 25133 ft | 272 kts | 326° |
| 2026-04-24 01:32 | -36.68414 | -57.75325 | 25040 ft | 276 kts | 326° |
| 2026-04-24 01:32 | -36.66632 | -57.76235 | 24950 ft | 284 kts | 331° |
| 2026-04-24 01:32 | -36.64738 | -57.77004 | 24861 ft | 288 kts | 333° |
| 2026-04-24 01:32 | -36.62823 | -57.77775 | 24764 ft | 289 kts | 332° |
| 2026-04-24 01:33 | -36.60918 | -57.78603 | 24670 ft | 291 kts | 331° |
| 2026-04-24 01:33 | -36.59002 | -57.79445 | 24576 ft | 293 kts | 331° |
| 2026-04-24 01:33 | -36.57070 | -57.80272 | 24481 ft | 294 kts | 332° |
| 2026-04-24 01:33 | -36.55128 | -57.81102 | 24386 ft | 295 kts | 332° |
| 2026-04-24 01:34 | -36.53182 | -57.81936 | 24289 ft | 296 kts | 332° |
| 2026-04-24 01:34 | -36.51227 | -57.82774 | 24193 ft | 297 kts | 331° |
| 2026-04-24 01:34 | -36.49274 | -57.83611 | 24164 ft | 295 kts | 331° |
| 2026-04-24 01:34 | -36.47333 | -57.84441 | 24166 ft | 293 kts | 331° |
| 2026-04-24 01:35 | -36.45410 | -57.85264 | 24164 ft | 292 kts | 331° |
| 2026-04-24 01:35 | -36.43492 | -57.86086 | 24165 ft | 291 kts | 331° |
| 2026-04-24 01:35 | -36.41584 | -57.86902 | 24165 ft | 290 kts | 331° |
| 2026-04-24 01:35 | -36.39679 | -57.87717 | 24164 ft | 289 kts | 331° |
| 2026-04-24 01:36 | -36.38422 | -57.88253 | 24164 ft | 289 kts | 331° |
| 2026-04-24 01:36 | -36.36525 | -57.89062 | 24164 ft | 288 kts | 331° |
| 2026-04-24 01:36 | -36.34629 | -57.89872 | 24163 ft | 288 kts | 331° |
| 2026-04-24 01:36 | -36.32734 | -57.90680 | 24163 ft | 288 kts | 331° |
| 2026-04-24 01:37 | -36.30843 | -57.91487 | 24162 ft | 287 kts | 331° |
| 2026-04-24 01:37 | -36.28960 | -57.92289 | 24162 ft | 286 kts | 331° |
| 2026-04-24 01:37 | -36.26468 | -57.93351 | 24161 ft | 286 kts | 331° |
| 2026-04-24 01:37 | -36.24587 | -57.94151 | 24160 ft | 285 kts | 331° |
| 2026-04-24 01:38 | -36.23318 | -57.94693 | 24160 ft | 285 kts | 331° |
| 2026-04-24 01:38 | -36.21440 | -57.95492 | 24159 ft | 285 kts | 331° |
| 2026-04-24 01:38 | -36.19564 | -57.96287 | 24159 ft | 285 kts | 331° |
| 2026-04-24 01:38 | -36.17715 | -57.97073 | 24158 ft | 284 kts | 331° |
| 2026-04-24 01:39 | -36.15839 | -57.97871 | 24158 ft | 284 kts | 331° |
| 2026-04-24 01:39 | -36.13966 | -57.98665 | 24157 ft | 284 kts | 331° |
| 2026-04-24 01:39 | -36.12095 | -57.99460 | 24157 ft | 284 kts | 331° |
| 2026-04-24 01:39 | -36.10223 | -58.00253 | 24157 ft | 284 kts | 331° |
| 2026-04-24 01:40 | -36.08354 | -58.01045 | 24156 ft | 284 kts | 331° |
| 2026-04-24 01:40 | -36.06510 | -58.01826 | 24156 ft | 284 kts | 331° |
| 2026-04-24 01:40 | -36.04644 | -58.02617 | 24156 ft | 283 kts | 331° |
| 2026-04-24 01:40 | -36.02777 | -58.03406 | 24156 ft | 284 kts | 331° |
| 2026-04-24 01:41 | -36.00908 | -58.04196 | 24155 ft | 284 kts | 331° |
| 2026-04-24 01:41 | -35.99041 | -58.04986 | 24155 ft | 284 kts | 331° |
| 2026-04-24 01:41 | -35.97174 | -58.05775 | 24155 ft | 284 kts | 331° |
| 2026-04-24 01:41 | -35.95307 | -58.06564 | 24155 ft | 284 kts | 331° |
| 2026-04-24 01:42 | -35.93438 | -58.07352 | 24155 ft | 284 kts | 331° |
| 2026-04-24 01:42 | -35.91571 | -58.08139 | 24155 ft | 284 kts | 331° |
| 2026-04-24 01:42 | -35.89707 | -58.08926 | 24167 ft | 283 kts | 331° |
| 2026-04-24 01:42 | -35.87840 | -58.09713 | 24167 ft | 283 kts | 331° |
| 2026-04-24 01:43 | -35.85974 | -58.10499 | 24167 ft | 284 kts | 331° |
| 2026-04-24 01:43 | -35.84107 | -58.11286 | 24167 ft | 284 kts | 331° |
| 2026-04-24 01:43 | -35.82238 | -58.12072 | 24167 ft | 284 kts | 331° |
| 2026-04-24 01:43 | -35.80368 | -58.12859 | 24167 ft | 284 kts | 331° |
| 2026-04-24 01:44 | -35.78498 | -58.13644 | 24167 ft | 284 kts | 331° |
| 2026-04-24 01:44 | -35.76629 | -58.14429 | 24168 ft | 284 kts | 331° |
| 2026-04-24 01:44 | -35.74757 | -58.15215 | 24168 ft | 283 kts | 331° |
| 2026-04-24 01:44 | -35.72893 | -58.16001 | 24167 ft | 283 kts | 331° |
| 2026-04-24 01:45 | -35.71051 | -58.16772 | 24167 ft | 284 kts | 331° |
| 2026-04-24 01:45 | -35.69184 | -58.17555 | 24168 ft | 284 kts | 331° |
| 2026-04-24 01:45 | -35.67314 | -58.18339 | 24167 ft | 284 kts | 331° |
| 2026-04-24 01:45 | -35.65443 | -58.19123 | 24167 ft | 284 kts | 331° |
| 2026-04-24 01:46 | -35.63570 | -58.19906 | 24168 ft | 284 kts | 331° |
| 2026-04-24 01:46 | -35.61696 | -58.20691 | 24169 ft | 284 kts | 331° |
| 2026-04-24 01:46 | -35.59828 | -58.21473 | 24170 ft | 283 kts | 331° |
| 2026-04-24 01:46 | -35.57958 | -58.22255 | 24171 ft | 284 kts | 331° |
| 2026-04-24 01:47 | -35.56092 | -58.23035 | 24171 ft | 283 kts | 331° |
| 2026-04-24 01:47 | -35.54223 | -58.23816 | 24172 ft | 283 kts | 331° |
| 2026-04-24 01:47 | -35.52380 | -58.24585 | 24172 ft | 284 kts | 331° |
| 2026-04-24 01:47 | -35.50487 | -58.25375 | 24177 ft | 284 kts | 331° |
| 2026-04-24 01:48 | -35.48640 | -58.26145 | 24177 ft | 284 kts | 331° |
| 2026-04-24 01:48 | -35.46771 | -58.26927 | 24176 ft | 284 kts | 331° |
| 2026-04-24 01:48 | -35.44895 | -58.27708 | 24147 ft | 285 kts | 331° |
| 2026-04-24 01:48 | -35.43004 | -58.28495 | 24002 ft | 289 kts | 332° |
| 2026-04-24 01:49 | -35.41085 | -58.29295 | 23853 ft | 293 kts | 332° |
| 2026-04-24 01:49 | -35.39147 | -58.30101 | 23707 ft | 296 kts | 332° |
| 2026-04-24 01:49 | -35.37188 | -58.30915 | 23560 ft | 298 kts | 332° |
| 2026-04-24 01:49 | -35.35217 | -58.31732 | 23413 ft | 300 kts | 332° |
| 2026-04-24 01:50 | -35.33232 | -58.32557 | 23266 ft | 301 kts | 332° |
| 2026-04-24 01:50 | -35.31242 | -58.33383 | 23118 ft | 302 kts | 332° |
| 2026-04-24 01:50 | -35.29247 | -58.34212 | 22971 ft | 303 kts | 333° |
| 2026-04-24 01:50 | -35.27244 | -58.35043 | 22823 ft | 304 kts | 333° |
| 2026-04-24 01:51 | -35.25257 | -58.35920 | 22680 ft | 301 kts | 328° |
| 2026-04-24 01:51 | -35.23429 | -58.37111 | 22527 ft | 297 kts | 322° |
| 2026-04-24 01:51 | -35.21676 | -58.38395 | 22381 ft | 297 kts | 322° |
| 2026-04-24 01:51 | -35.19837 | -58.39607 | 22166 ft | 302 kts | 326° |
| 2026-04-24 01:52 | -35.17938 | -58.40735 | 21944 ft | 305 kts | 327° |
| 2026-04-24 01:52 | -35.16033 | -58.41903 | 21575 ft | 306 kts | 326° |
| 2026-04-24 01:52 | -35.14146 | -58.43103 | 21143 ft | 305 kts | 326° |
| 2026-04-24 01:52 | -35.12260 | -58.44295 | 20727 ft | 305 kts | 326° |
| 2026-04-24 01:53 | -35.10366 | -58.45474 | 20303 ft | 305 kts | 327° |
| 2026-04-24 01:53 | -35.08477 | -58.46651 | 19882 ft | 305 kts | 327° |
| 2026-04-24 01:53 | -35.06611 | -58.47818 | 19461 ft | 305 kts | 327° |
| 2026-04-24 01:53 | -35.04909 | -58.48882 | 19065 ft | 301 kts | 327° |
| 2026-04-24 01:54 | -35.03022 | -58.50060 | 18641 ft | 294 kts | 327° |
| 2026-04-24 01:54 | -35.01217 | -58.51188 | 18216 ft | 289 kts | 328° |
| 2026-04-24 01:54 | -34.99433 | -58.52300 | 17790 ft | 287 kts | 328° |
| 2026-04-24 01:54 | -34.97666 | -58.53400 | 17358 ft | 284 kts | 328° |
| 2026-04-24 01:55 | -34.95909 | -58.54501 | 16930 ft | 283 kts | 328° |
| 2026-04-24 01:55 | -34.94160 | -58.55589 | 16504 ft | 282 kts | 328° |
| 2026-04-24 01:55 | -34.92416 | -58.56672 | 16077 ft | 281 kts | 328° |
| 2026-04-24 01:55 | -34.90674 | -58.57754 | 15649 ft | 280 kts | 328° |
| 2026-04-24 01:56 | -34.88952 | -58.58829 | 15227 ft | 279 kts | 329° |
| 2026-04-24 01:56 | -34.87315 | -58.59846 | 14822 ft | 279 kts | 329° |
| 2026-04-24 01:56 | -34.85586 | -58.60919 | 14398 ft | 279 kts | 329° |
| 2026-04-24 01:56 | -34.83855 | -58.61993 | 13973 ft | 279 kts | 329° |
| 2026-04-24 01:57 | -34.82131 | -58.63064 | 13548 ft | 279 kts | 329° |
| 2026-04-24 01:57 | -34.80405 | -58.64136 | 13123 ft | 278 kts | 330° |
| 2026-04-24 01:57 | -34.78681 | -58.65205 | 12698 ft | 277 kts | 330° |
| 2026-04-24 01:57 | -34.76959 | -58.66270 | 12273 ft | 277 kts | 330° |
| 2026-04-24 01:58 | -34.75246 | -58.67332 | 11849 ft | 276 kts | 330° |
| 2026-04-24 01:58 | -34.73535 | -58.68397 | 11425 ft | 276 kts | 330° |
| 2026-04-24 01:58 | -34.71823 | -58.69451 | 10999 ft | 271 kts | 331° |
| 2026-04-24 01:58 | -34.70189 | -58.70460 | 10571 ft | 256 kts | 330° |
| 2026-04-24 01:59 | -34.68638 | -58.71424 | 10138 ft | 245 kts | 330° |
| 2026-04-24 01:59 | -34.67143 | -58.72349 | 9706 ft | 237 kts | 331° |
| 2026-04-24 01:59 | -34.65698 | -58.73243 | 9273 ft | 230 kts | 331° |
| 2026-04-24 01:59 | -34.64287 | -58.74116 | 8829 ft | 226 kts | 331° |
| 2026-04-24 02:00 | -34.62953 | -58.74939 | 8427 ft | 222 kts | 331° |
| 2026-04-24 02:00 | -34.61587 | -58.75781 | 7995 ft | 219 kts | 331° |
| 2026-04-24 02:00 | -34.60239 | -58.76614 | 7565 ft | 216 kts | 332° |
| 2026-04-24 02:00 | -34.58906 | -58.77435 | 7135 ft | 213 kts | 332° |
| 2026-04-24 02:01 | -34.57489 | -58.77900 | 6690 ft | 213 kts | 358° |
| 2026-04-24 02:01 | -34.56049 | -58.77526 | 6197 ft | 214 kts | 27° |
| 2026-04-24 02:01 | -34.54869 | -58.76469 | 5711 ft | 214 kts | 37° |
| 2026-04-24 02:01 | -34.53694 | -58.75374 | 5217 ft | 213 kts | 49° |
| 2026-04-24 02:02 | -34.52984 | -58.73826 | 4729 ft | 211 kts | 71° |
| 2026-04-24 02:02 | -34.52472 | -58.72209 | 4445 ft | 200 kts | 64° |
| 2026-04-24 02:02 | -34.51790 | -58.70795 | 4215 ft | 189 kts | 58° |
| 2026-04-24 02:02 | -34.51096 | -58.69489 | 3984 ft | 181 kts | 58° |
| 2026-04-24 02:03 | -34.49777 | -58.66930 | 3523 ft | 198 kts | 58° |
| 2026-04-24 02:03 | -34.49009 | -58.65428 | 3307 ft | 219 kts | 58° |
| 2026-04-24 02:03 | -34.48181 | -58.63813 | 3095 ft | 232 kts | 57° |
| 2026-04-24 02:04 | -34.47318 | -58.62136 | 2988 ft | 235 kts | 57° |
| 2026-04-24 02:04 | -34.46667 | -58.60387 | 2992 ft | 219 kts | 78° |
| 2026-04-24 02:04 | -34.46689 | -58.58595 | 2839 ft | 210 kts | 97° |
| 2026-04-24 02:04 | -34.46924 | -58.56879 | 2667 ft | 203 kts | 97° |
| 2026-04-24 02:05 | -34.47229 | -58.55230 | 2488 ft | 200 kts | 115° |
| 2026-04-24 02:05 | -34.48138 | -58.53996 | 2310 ft | 196 kts | 140° |
| 2026-04-24 02:05 | -34.49190 | -58.52963 | 2082 ft | 193 kts | 140° |
| 2026-04-24 02:05 | -34.50132 | -58.51865 | 1849 ft | 178 kts | 126° |
| 2026-04-24 02:06 | -34.50812 | -58.50699 | 1627 ft | 166 kts | 124° |
| 2026-04-24 02:06 | -34.51486 | -58.49542 | 1403 ft | 173 kts | 123° |
| 2026-04-24 02:06 | -34.52125 | -58.48387 | 1182 ft | 157 kts | 122° |
| 2026-04-24 02:06 | -34.52727 | -58.47303 | 982 ft | 155 kts | 122° |
| 2026-04-24 02:07 | -34.53325 | -58.46211 | 779 ft | 155 kts | 123° |
| 2026-04-24 02:07 | -34.53914 | -58.45166 | 576 ft | 147 kts | 122° |
| 2026-04-24 02:07 | -34.54495 | -58.44131 | 369 ft | 150 kts | 123° |
| 2026-04-24 02:07 | -34.55044 | -58.43147 | 164 ft | 132 kts | 123° |
| 2026-04-24 02:08 | -34.55527 | -58.42291 | 29 ft | 112 kts | 123° |
| 2026-04-24 02:08 | -34.55912 | -58.41595 | 20 ft | 84 kts | 122° |
| 2026-04-24 02:08 | -34.56053 | -58.41390 | 25 ft | 20 kts | 197° |
| 2026-04-24 02:08 | -34.56147 | -58.41465 | 22 ft | 15 kts | 214° |
| 2026-04-24 02:09 | -34.56230 | -58.41413 | 22 ft | 17 kts | 122° |
| 2026-04-24 02:09 | -34.56295 | -58.41294 | 22 ft | 17 kts | 126° |
| 2026-04-24 02:09 | -34.56358 | -58.41182 | 23 ft | 16 kts | 124° |
| 2026-04-24 02:09 | -34.56417 | -58.41078 | 24 ft | 15 kts | 123° |
| 2026-04-24 02:10 | -34.56472 | -58.40978 | 24 ft | 14 kts | 124° |
| 2026-04-24 02:10 | -34.56526 | -58.40883 | 23 ft | 13 kts | 123° |
| 2026-04-24 02:10 | -34.56545 | -58.40819 | 22 ft | 5 kts | 319° |
| 2026-04-24 02:10 | -34.56531 | -58.40876 | 23 ft | 7 kts | 281° |
| 2026-04-24 02:11 | -34.56506 | -58.40889 | 22 ft | 2 kts | 42° |
| 2026-04-24 02:11 | -34.56491 | -58.40876 | 22 ft | 2 kts | 32° |
| 2026-04-24 02:11 | -34.56487 | -58.40872 | 22 ft | 0 kts | 34° |
| 2026-04-24 02:11 | -34.56484 | -58.40870 | 22 ft | 0 kts | 33° |